Latest Weather Observations for Fawkner Beacon

IDV60801

Issued at 1:02 am EST Thursday 15 April 2021 (issued every 10 minutes, with the page automatically refreshed every 10 minutes)

About weather observations | Map of weather stations | Latest weather observations for VIC | Other Formats
Station Details ID: 086376 Name: FAWKNER BEACON Lat: -37.95 Lon: 144.93 Height: 17.0 m
Data from the previous 72 hours. | See also: Recent months at Fawkner Beacon
Date/Time
EST
Temp
°C
App
Temp
°C
Dew
Point
°C
Rel
Hum
%
Delta-T
°C
Wind Press
QNH
hPa
Press
MSL
hPa
Rain since
9am
mm
Dir  Spd
km/h
Gust
km/h
Spd
kts
Gust
kts
15/01:00am - - - - - WNW 26 32 14 17 - - -
15/12:30am - - - - - WNW 22 26 12 14 - - -
15/12:00am - - - - - WNW 24 28 13 15 - - -
 
Date/Time
EST
Temp
°C
App
Temp
°C
Dew
Point
°C
Rel
Hum
%
Delta-T
°C
Wind Press
QNH
hPa
Press
MSL
hPa
Rain since
9am
mm
Dir  Spd
km/h
Gust
km/h
Spd
kts
Gust
kts
14/11:30pm - - - - - W 30 39 16 21 - - -
14/11:00pm - - - - - W 32 39 17 21 - - -
14/10:30pm - - - - - WNW 32 39 17 21 - - -
14/10:00pm - - - - - WNW 28 32 15 17 - - -
14/09:30pm - - - - - WNW 28 33 15 18 - - -
14/09:00pm - - - - - W 28 32 15 17 - - -
14/08:30pm - - - - - W 28 32 15 17 - - -
14/08:06pm - - - - - WSW 39 57 21 31 - - -
14/08:00pm - - - - - WSW 44 57 24 31 - - -
14/07:30pm - - - - - WSW 32 41 17 22 - - -
14/07:00pm - - - - - W 28 32 15 17 - - -
14/06:30pm - - - - - W 32 39 17 21 - - -
14/06:00pm - - - - - W 30 39 16 21 - - -
14/05:30pm - - - - - W 33 43 18 23 - - -
14/05:08pm - - - - - W 43 61 23 33 - - -
14/05:00pm - - - - - W 33 44 18 24 - - -
14/04:30pm - - - - - WSW 32 35 17 19 - - -
14/04:00pm - - - - - W 35 43 19 23 - - -
14/03:30pm - - - - - W 43 52 23 28 - - -
14/03:00pm - - - - - WSW 37 46 20 25 - - -
14/02:30pm - - - - - WSW 33 41 18 22 - - -
14/02:17pm - - - - - W 33 46 18 25 - - -
14/02:00pm - - - - - WNW 35 46 19 25 - - -
14/01:30pm - - - - - WNW 43 52 23 28 - - -
14/01:00pm - - - - - W 37 46 20 25 - - -
14/12:30pm - - - - - W 37 44 20 24 - - -
14/12:00pm - - - - - W 35 46 19 25 - - -
14/11:30am - - - - - WNW 39 46 21 25 - - -
14/11:00am - - - - - WNW 43 52 23 28 - - -
14/10:30am - - - - - W 39 48 21 26 - - -
14/10:00am - - - - - W 35 44 19 24 - - -
14/09:30am - - - - - WNW 30 35 16 19 - - -
14/09:00am - - - - - NW 33 43 18 23 - - -
14/08:30am - - - - - NW 32 39 17 21 - - -
14/08:00am - - - - - NW 32 39 17 21 - - -
14/07:30am - - - - - NW 33 41 18 22 - - -
14/07:00am - - - - - WNW 37 46 20 25 - - -
14/06:30am - - - - - W 41 48 22 26 - - -
14/06:00am - - - - - WSW 48 57 26 31 - - -
14/05:30am - - - - - WSW 43 52 23 28 - - -
14/05:22am - - - - - WNW 37 48 20 26 - - -
14/05:00am - - - - - NNW 35 44 19 24 - - -
14/04:30am - - - - - NNW 39 50 21 27 - - -
14/04:09am - - - - - NNW 30 46 16 25 - - -
14/04:00am - - - - - N 20 28 11 15 - - -
14/03:30am - - - - - N 26 30 14 16 - - -
14/03:00am - - - - - N 33 43 18 23 - - -
14/02:30am - - - - - N 41 48 22 26 - - -
14/02:00am - - - - - N 48 65 26 35 - - -
14/01:30am - - - - - N 43 52 23 28 - - -
14/01:00am - - - - - N 44 52 24 28 - - -
14/12:30am - - - - - N 44 52 24 28 - - -
14/12:00am - - - - - N 44 54 24 29 - - -
 
Date/Time
EST
Temp
°C
App
Temp
°C
Dew
Point
°C
Rel
Hum
%
Delta-T
°C
Wind Press
QNH
hPa
Press
MSL
hPa
Rain since
9am
mm
Dir  Spd
km/h
Gust
km/h
Spd
kts
Gust
kts
13/11:30pm - - - - - N 43 52 23 28 - - -
13/11:00pm - - - - - N 46 59 25 32 - - -
13/10:30pm - - - - - N 50 61 27 33 - - -
13/10:00pm - - - - - N 41 50 22 27 - - -
13/09:30pm - - - - - N 44 61 24 33 - - -
13/09:04pm - - - - - N 43 61 23 33 - - -
13/09:00pm - - - - - N 44 61 24 33 - - -
13/08:30pm - - - - - N 35 44 19 24 - - -
13/08:00pm - - - - - N 41 52 22 28 - - -
13/07:30pm - - - - - N 41 52 22 28 - - -
13/07:09pm - - - - - N 46 65 25 35 - - -
13/07:00pm - - - - - N 50 65 27 35 - - -
13/06:30pm - - - - - N 50 63 27 34 - - -
13/06:20pm - - - - - N 50 69 27 37 - - -
13/06:00pm - - - - - N 46 59 25 32 - - -
13/05:30pm - - - - - N 50 61 27 33 - - -
13/05:00pm - - - - - N 48 67 26 36 - - -
13/04:58pm - - - - - N 46 65 25 35 - - -
13/04:30pm - - - - - N 43 57 23 31 - - -
13/04:00pm - - - - - N 52 65 28 35 - - -
13/03:43pm - - - - - N 52 70 28 38 - - -
13/03:30pm - - - - - N 54 69 29 37 - - -
13/03:00pm - - - - - N 57 70 31 38 - - -
13/02:30pm - - - - - N 52 63 28 34 - - -
13/02:00pm - - - - - N 50 63 27 34 - - -
13/01:30pm - - - - - N 50 63 27 34 - - -
13/01:00pm - - - - - N 46 61 25 33 - - -
13/12:30pm - - - - - N 46 59 25 32 - - -
13/12:00pm - - - - - N 50 59 27 32 - - -
13/11:30am - - - - - N 48 57 26 31 - - -
13/11:00am - - - - - N 39 46 21 25 - - -
13/10:30am - - - - - N 39 48 21 26 - - -
13/10:00am - - - - - N 41 50 22 27 - - -
13/09:30am - - - - - N 30 35 16 19 - - -
13/09:00am - - - - - N 22 26 12 14 - - -
13/08:30am - - - - - N 24 28 13 15 - - -
13/08:00am - - - - - N 24 28 13 15 - - -
13/07:30am - - - - - NNE 26 28 14 15 - - -
13/07:00am - - - - - NNE 28 32 15 17 - - -
13/06:30am - - - - - N 22 26 12 14 - - -
13/06:00am - - - - - N 22 26 12 14 - - -
13/05:30am - - - - - N 22 26 12 14 - - -
13/05:00am - - - - - N 17 22 9 12 - - -
13/04:30am - - - - - N 20 24 11 13 - - -
13/04:00am - - - - - N 20 22 11 12 - - -
13/03:30am - - - - - NNE 15 17 8 9 - - -
13/03:00am - - - - - N 13 17 7 9 - - -
13/02:30am - - - - - N 15 20 8 11 - - -
13/02:00am - - - - - N 20 24 11 13 - - -
13/01:30am - - - - - N 20 24 11 13 - - -
13/01:00am - - - - - N 17 22 9 12 - - -
13/12:30am - - - - - NNE 15 20 8 11 - - -
13/12:00am - - - - - NE 17 20 9 11 - - -
 
Date/Time
EST
Temp
°C
App
Temp
°C
Dew
Point
°C
Rel
Hum
%
Delta-T
°C
Wind Press
QNH
hPa
Press
MSL
hPa
Rain since
9am
mm
Dir  Spd
km/h
Gust
km/h
Spd
kts
Gust
kts
12/11:30pm - - - - - NE 15 20 8 11 - - -
12/11:00pm - - - - - ENE 13 17 7 9 - - -
12/10:30pm - - - - - E 15 20 8 11 - - -
12/10:00pm - - - - - ENE 15 20 8 11 - - -
12/09:30pm - - - - - ENE 15 17 8 9 - - -
12/09:00pm - - - - - E 17 20 9 11 - - -
12/08:30pm - - - - - SE 13 17 7 9 - - -
12/08:00pm - - - - - SSE 9 13 5 7 - - -
12/07:30pm - - - - - SSE 11 15 6 8 - - -
12/07:00pm - - - - - SSE 11 17 6 9 - - -
12/06:30pm - - - - - S 15 17 8 9 - - -
12/06:00pm - - - - - S 11 15 6 8 - - -
12/05:30pm - - - - - SSW 11 15 6 8 - - -
12/05:00pm - - - - - SSW 11 15 6 8 - - -
12/04:30pm - - - - - SSW 13 17 7 9 - - -
12/04:00pm - - - - - SSW 15 20 8 11 - - -
12/03:30pm - - - - - SSW 17 22 9 12 - - -
12/03:00pm - - - - - SSW 19 24 10 13 - - -
12/02:30pm - - - - - SSW 20 24 11 13 - - -
12/02:00pm - - - - - SSW 19 24 10 13 - - -
12/01:30pm - - - - - SSW 17 22 9 12 - - -
12/01:00pm - - - - - SSW 17 20 9 11 - - -
12/12:30pm - - - - - SW 19 26 10 14 - - -
12/12:00pm - - - - - SSW 19 26 10 14 - - -
12/11:30am - - - - - WSW 22 26 12 14 - - -
12/11:00am - - - - - S 15 22 8 12 - - -
12/10:30am - - - - - SW 20 26 11 14 - - -
12/10:00am - - - - - S 17 24 9 13 - - -
12/09:30am - - - - - SSE 17 26 9 14 - - -
12/09:00am - - - - - S 20 28 11 15 - - -
12/08:30am - - - - - S 30 44 16 24 - - -
12/08:00am - - - - - S 30 41 16 22 - - -
12/07:30am - - - - - WSW 30 35 16 19 - - -
12/07:00am - - - - - WSW 33 46 18 25 - - -
12/06:30am - - - - - WSW 28 35 15 19 - - -
12/06:00am - - - - - WSW 33 39 18 21 - - -
12/05:30am - - - - - WSW 30 35 16 19 - - -
12/05:00am - - - - - W 30 39 16 21 - - -
12/04:30am - - - - - SW 32 43 17 23 - - -
12/04:00am - - - - - SSW 30 41 16 22 - - -
12/03:30am - - - - - SSW 35 48 19 26 - - -
12/03:25am - - - - - SW 35 48 19 26 - - -
12/03:00am - - - - - WSW 32 41 17 22 - - -
12/02:30am - - - - - WSW 30 35 16 19 - - -
12/02:06am - - - - - WSW 35 44 19 24 - - -
12/02:00am - - - - - SW 35 46 19 25 - - -
12/01:41am - - - - - SW 37 52 20 28 - - -
12/01:36am - - - - - SSW 43 54 23 29 - - -
12/01:30am - - - - - SSW 41 52 22 28 - - -

Other formats

Comma delimited format used in spreadsheet applications
http://www.bom.gov.au/fwo/IDV60801/IDV60801.95872.axf

JavaScript Object Notation format (JSON) in row-major order
http://www.bom.gov.au/fwo/IDV60801/IDV60801.95872.json

Data quality

Most of these data are generated automatically and are frequently updated. Quality checks on data are not normally performed. It is possible for incorrect values to appear. Refer to information at About Latest Weather Observations and please check the disclaimer before using these data.